createdAt,value
2018-12-20T00:00:16.823Z,6.37
2018-12-20T00:00:51.782Z,6.37
2018-12-20T00:01:26.468Z,6.37
2018-12-20T00:02:01.348Z,6.33
2018-12-20T00:02:36.131Z,6.31
2018-12-20T00:03:11.183Z,6.31
2018-12-20T00:03:46.163Z,6.31
2018-12-20T00:04:20.748Z,6.38
2018-12-20T00:04:55.338Z,6.42
2018-12-20T00:05:30.293Z,6.38
2018-12-20T00:06:05.190Z,6.41
2018-12-20T00:06:40.181Z,6.40
2018-12-20T00:07:14.869Z,6.41
2018-12-20T00:07:49.653Z,6.48
2018-12-20T00:08:24.344Z,6.43
2018-12-20T00:08:59.253Z,6.41
2018-12-20T00:09:34.055Z,6.33
2018-12-20T00:10:09.599Z,6.28
2018-12-20T00:10:44.454Z,6.26
2018-12-20T00:11:19.188Z,6.35
2018-12-20T00:11:54.047Z,6.30
2018-12-20T00:12:28.800Z,6.26
2018-12-20T00:13:03.716Z,6.29
2018-12-20T00:13:38.422Z,6.31
2018-12-20T00:14:13.231Z,6.40
2018-12-20T00:14:48.173Z,6.36
2018-12-20T00:15:23.338Z,6.36
2018-12-20T00:15:58.345Z,6.37
2018-12-20T00:16:33.321Z,6.31
2018-12-20T00:17:13.290Z,6.29
2018-12-20T00:17:50.217Z,6.32
2018-12-20T00:18:25.293Z,6.23
2018-12-20T00:19:00.516Z,6.27
2018-12-20T00:19:35.197Z,6.28
2018-12-20T00:20:10.443Z,6.27
2018-12-20T00:20:45.076Z,6.26
2018-12-20T00:21:19.676Z,6.18
2018-12-20T00:21:54.339Z,6.15
2018-12-20T00:22:29.197Z,6.21
2018-12-20T00:23:04.346Z,6.21
2018-12-20T00:23:39.173Z,6.20
2018-12-20T00:24:14.471Z,6.15
2018-12-20T00:24:49.709Z,6.15
2018-12-20T00:25:24.575Z,6.30
2018-12-20T00:25:59.229Z,6.26
2018-12-20T00:26:34.077Z,6.26
2018-12-20T00:27:08.691Z,6.32
2018-12-20T00:27:43.920Z,6.24
2018-12-20T00:28:18.912Z,6.23
2018-12-20T00:28:53.762Z,6.32
2018-12-20T00:29:28.802Z,6.24
2018-12-20T00:30:03.922Z,6.29
2018-12-20T00:30:38.773Z,6.22
2018-12-20T00:31:13.760Z,6.20
2018-12-20T00:31:48.667Z,6.22
2018-12-20T00:32:23.425Z,6.16
2018-12-20T00:32:58.424Z,6.13
2018-12-20T00:33:33.591Z,6.14
2018-12-20T00:34:08.583Z,6.14
2018-12-20T00:34:43.523Z,6.09
2018-12-20T00:35:18.499Z,6.16
2018-12-20T00:35:53.403Z,6.22
2018-12-20T00:36:28.383Z,6.23
2018-12-20T00:37:03.538Z,6.18
2018-12-20T00:37:38.273Z,6.21
2018-12-20T00:38:13.215Z,6.26
2018-12-20T00:38:48.254Z,6.16
2018-12-20T00:39:23.354Z,6.12
2018-12-20T00:39:58.327Z,6.12
2018-12-20T00:40:34.714Z,6.20
2018-12-20T00:41:10.036Z,6.23
2018-12-20T00:41:44.919Z,6.18
2018-12-20T00:42:19.807Z,6.19
2018-12-20T00:42:54.754Z,6.23
2018-12-20T00:43:29.771Z,6.22
2018-12-20T00:44:05.631Z,6.31
2018-12-20T00:44:40.343Z,6.25
2018-12-20T00:45:14.977Z,6.23
2018-12-20T00:45:50.352Z,6.24
2018-12-20T00:46:25.174Z,6.21
2018-12-20T00:47:00.134Z,6.18
2018-12-20T00:47:34.965Z,6.16
2018-12-20T00:48:09.868Z,6.15
2018-12-20T00:48:44.544Z,6.18
2018-12-20T00:49:19.969Z,6.18
2018-12-20T00:49:54.600Z,6.26
2018-12-20T00:50:29.281Z,6.25
2018-12-20T00:51:03.962Z,6.21
2018-12-20T00:51:38.822Z,6.16
2018-12-20T00:52:13.590Z,6.23
2018-12-20T00:52:48.243Z,6.15
2018-12-20T00:53:23.102Z,6.10
2018-12-20T00:53:58.060Z,6.09
2018-12-20T00:54:32.949Z,6.07
2018-12-20T00:55:08.230Z,6.15
2018-12-20T00:55:43.368Z,6.14
2018-12-20T00:56:18.403Z,6.14
2018-12-20T00:56:53.414Z,6.10
2018-12-20T00:57:28.582Z,6.10
2018-12-20T00:58:03.654Z,6.09
2018-12-20T00:58:38.267Z,6.15
2018-12-20T00:59:13.245Z,6.14
2018-12-20T00:59:48.719Z,6.14
2018-12-20T01:00:23.797Z,6.13
2018-12-20T01:00:58.718Z,6.13
2018-12-20T01:01:33.613Z,6.07
2018-12-20T01:02:09.068Z,6.14
2018-12-20T01:02:44.008Z,6.22
2018-12-20T01:03:18.960Z,6.23
2018-12-20T01:03:53.577Z,6.28
2018-12-20T01:04:28.216Z,6.32
2018-12-20T01:05:03.302Z,6.21
2018-12-20T01:05:38.387Z,6.21
2018-12-20T01:06:13.578Z,6.18
2018-12-20T01:06:48.371Z,6.22
2018-12-20T01:07:23.304Z,6.27
2018-12-20T01:07:58.042Z,6.16
2018-12-20T01:08:32.856Z,6.26
2018-12-20T01:09:08.899Z,6.22
2018-12-20T01:09:44.150Z,6.21
2018-12-20T01:10:19.529Z,6.16
2018-12-20T01:10:54.156Z,6.12
2018-12-20T01:11:29.282Z,6.12
2018-12-20T01:12:04.487Z,6.20
2018-12-20T01:12:39.348Z,6.18
2018-12-20T01:13:14.262Z,6.22
2018-12-20T01:13:49.763Z,6.25
2018-12-20T01:14:24.603Z,6.22
2018-12-20T01:14:59.239Z,6.27
2018-12-20T01:15:34.075Z,6.27
2018-12-20T01:16:09.064Z,6.27
2018-12-20T01:16:44.020Z,6.18
2018-12-20T01:17:18.920Z,6.28
2018-12-20T01:17:53.559Z,6.20
2018-12-20T01:18:28.389Z,6.20
2018-12-20T01:19:03.070Z,6.18
2018-12-20T01:19:37.720Z,6.17
2018-12-20T01:20:12.545Z,6.14
2018-12-20T01:20:47.310Z,6.18
2018-12-20T01:21:22.101Z,6.18
2018-12-20T01:21:56.983Z,6.21
2018-12-20T01:22:31.863Z,6.28
2018-12-20T01:23:07.479Z,6.30
2018-12-20T01:23:42.574Z,6.25
2018-12-20T01:24:17.569Z,6.31
2018-12-20T01:24:52.628Z,6.23
2018-12-20T01:25:27.741Z,6.22
2018-12-20T01:26:03.283Z,6.15
2018-12-20T01:26:37.949Z,6.17
2018-12-20T01:27:12.946Z,6.15
2018-12-20T01:27:47.914Z,6.13
2018-12-20T01:28:24.656Z,6.23
2018-12-20T01:28:59.337Z,6.18
2018-12-20T01:29:34.190Z,6.17
2018-12-20T01:30:09.334Z,6.20
2018-12-20T01:30:44.245Z,6.20
2018-12-20T01:31:19.552Z,6.17
2018-12-20T01:31:54.830Z,6.21
2018-12-20T01:32:30.574Z,6.21
2018-12-20T01:33:05.912Z,6.29
2018-12-20T01:33:41.499Z,6.30
2018-12-20T01:34:17.422Z,6.28
2018-12-20T01:34:52.310Z,6.40
2018-12-20T01:35:27.215Z,6.41
2018-12-20T01:36:02.092Z,6.39
2018-12-20T01:36:37.377Z,6.43
2018-12-20T01:37:12.122Z,6.52
2018-12-20T01:37:46.988Z,6.47
2018-12-20T01:38:21.589Z,6.41
2018-12-20T01:38:56.519Z,6.40
2018-12-20T01:39:31.378Z,6.41
2018-12-20T01:40:07.034Z,6.43
2018-12-20T01:40:42.052Z,6.42
2018-12-20T01:41:16.939Z,6.45
2018-12-20T01:41:51.802Z,6.46
2018-12-20T01:42:27.023Z,6.45
2018-12-20T01:43:01.944Z,6.49
2018-12-20T01:43:36.632Z,6.46
2018-12-20T01:44:11.462Z,6.44
2018-12-20T01:44:53.362Z,6.48
2018-12-20T01:45:22.706Z,6.49
2018-12-20T01:45:57.412Z,6.51
2018-12-20T01:46:32.204Z,6.54
2018-12-20T01:47:07.104Z,6.61
2018-12-20T01:47:41.951Z,6.63
2018-12-20T01:48:16.808Z,6.62
2018-12-20T01:48:51.659Z,6.66
2018-12-20T01:49:26.541Z,6.73
2018-12-20T01:50:01.551Z,6.66
2018-12-20T01:50:36.287Z,6.61
2018-12-20T01:51:11.223Z,6.56
2018-12-20T01:51:46.173Z,6.53
2018-12-20T01:52:20.982Z,6.50
2018-12-20T01:52:56.106Z,6.54
2018-12-20T01:53:31.325Z,6.58
2018-12-20T01:54:06.152Z,6.62
2018-12-20T01:54:40.922Z,6.67
2018-12-20T01:55:15.849Z,6.66
2018-12-20T01:55:50.719Z,6.68
2018-12-20T01:56:25.639Z,6.74
2018-12-20T01:57:00.661Z,6.69
2018-12-20T01:57:35.466Z,6.67
2018-12-20T01:58:10.071Z,6.65
2018-12-20T01:58:44.688Z,6.63
2018-12-20T01:59:19.615Z,6.60
2018-12-20T01:59:54.499Z,6.58
2018-12-20T02:00:29.827Z,6.58
2018-12-20T02:01:04.468Z,6.66
2018-12-20T02:01:39.253Z,6.62
2018-12-20T02:02:14.048Z,6.61
2018-12-20T02:02:48.872Z,6.58
2018-12-20T02:03:23.746Z,6.61
2018-12-20T02:03:58.804Z,6.65
2018-12-20T02:04:33.949Z,6.63
2018-12-20T02:05:08.735Z,6.65
2018-12-20T02:05:43.594Z,6.76
2018-12-20T02:06:18.225Z,6.79
2018-12-20T02:06:53.079Z,6.83
2018-12-20T02:07:28.213Z,6.80
2018-12-20T02:08:03.144Z,6.80
2018-12-20T02:08:38.041Z,6.74
2018-12-20T02:09:12.649Z,6.70
2018-12-20T02:09:47.517Z,6.64
2018-12-20T02:10:22.338Z,6.69
2018-12-20T02:10:57.406Z,6.71
2018-12-20T02:11:32.368Z,6.69
2018-12-20T02:12:07.231Z,6.69
2018-12-20T02:12:42.271Z,6.65
2018-12-20T02:13:17.271Z,6.64
2018-12-20T02:13:52.151Z,6.74
2018-12-20T02:14:26.898Z,6.76
2018-12-20T02:15:02.980Z,6.71
2018-12-20T02:15:37.647Z,6.74
2018-12-20T02:16:12.293Z,6.69
2018-12-20T02:16:47.148Z,6.66
2018-12-20T02:17:21.761Z,6.64
2018-12-20T02:17:56.523Z,6.67
2018-12-20T02:18:31.971Z,6.66
2018-12-20T02:19:06.894Z,6.70
2018-12-20T02:19:41.781Z,6.74
2018-12-20T02:20:16.391Z,6.72
2018-12-20T02:20:51.824Z,6.68
2018-12-20T02:21:26.949Z,6.73
2018-12-20T02:22:01.643Z,6.69
2018-12-20T02:22:36.235Z,6.72
2018-12-20T02:23:10.978Z,6.66
2018-12-20T02:23:45.882Z,6.73
2018-12-20T02:24:20.728Z,6.69
2018-12-20T02:24:55.749Z,6.65
2018-12-20T02:25:30.675Z,6.71
2018-12-20T02:26:05.641Z,6.72
2018-12-20T02:26:40.503Z,6.76
2018-12-20T02:27:15.261Z,6.83
2018-12-20T02:27:50.527Z,6.85
2018-12-20T02:28:25.342Z,6.83
2018-12-20T02:29:00.252Z,6.81
2018-12-20T02:29:35.300Z,6.83
2018-12-20T02:30:11.841Z,6.78
2018-12-20T02:30:46.749Z,6.86
2018-12-20T02:31:22.049Z,6.86
2018-12-20T02:31:59.431Z,6.96
2018-12-20T02:32:34.079Z,6.99
2018-12-20T02:33:08.766Z,6.95
2018-12-20T02:33:43.599Z,7.06
2018-12-20T02:34:18.544Z,7.08
2018-12-20T02:34:53.389Z,6.99
2018-12-20T02:35:28.445Z,6.92
2018-12-20T02:36:03.863Z,7.01
2018-12-20T02:36:38.920Z,6.96
2018-12-20T02:37:14.320Z,6.94
2018-12-20T02:37:49.370Z,6.95
2018-12-20T02:38:24.310Z,6.89
2018-12-20T02:38:59.353Z,6.94
2018-12-20T02:39:34.178Z,7.05
2018-12-20T02:40:09.725Z,6.97
2018-12-20T02:40:44.706Z,7.00
2018-12-20T02:41:19.609Z,6.92
2018-12-20T02:41:54.472Z,6.93
2018-12-20T02:42:29.230Z,7.07
2018-12-20T02:43:04.134Z,7.12
2018-12-20T02:43:39.080Z,7.11
2018-12-20T02:44:13.854Z,7.15
2018-12-20T02:44:48.579Z,7.16
2018-12-20T02:45:23.803Z,7.12
2018-12-20T02:45:58.514Z,7.12
2018-12-20T02:46:33.381Z,7.11
2018-12-20T02:47:08.291Z,7.16
2018-12-20T02:47:43.418Z,7.16
2018-12-20T02:48:18.282Z,7.10
2018-12-20T02:48:53.365Z,7.14
2018-12-20T02:49:28.473Z,7.28
2018-12-20T02:50:04.485Z,7.23
2018-12-20T02:50:39.816Z,7.28
2018-12-20T02:51:15.430Z,7.19
2018-12-20T02:51:50.512Z,7.29
2018-12-20T02:52:25.719Z,7.35
2018-12-20T02:53:00.861Z,7.26
2018-12-20T02:53:35.720Z,7.25
2018-12-20T02:54:10.777Z,7.22
2018-12-20T02:54:45.766Z,7.22
2018-12-20T02:55:20.847Z,7.13
2018-12-20T02:55:55.808Z,7.14
2018-12-20T02:56:30.677Z,7.11
2018-12-20T02:57:05.405Z,7.18
2018-12-20T02:57:40.004Z,7.12
2018-12-20T02:58:14.817Z,7.22
2018-12-20T02:58:49.736Z,7.23
2018-12-20T02:59:24.359Z,7.24
2018-12-20T02:59:59.431Z,7.18
2018-12-20T03:00:34.403Z,7.28
2018-12-20T03:01:09.359Z,7.32
2018-12-20T03:01:44.195Z,7.37
2018-12-20T03:02:18.803Z,7.20
2018-12-20T03:02:53.684Z,7.19
2018-12-20T03:03:28.400Z,7.23
2018-12-20T03:04:03.733Z,7.37
2018-12-20T03:04:38.428Z,7.31
2018-12-20T03:05:13.977Z,7.34
2018-12-20T03:05:49.365Z,7.33
2018-12-20T03:06:24.152Z,7.37
2018-12-20T03:06:59.103Z,7.38
2018-12-20T03:07:34.225Z,7.32
2018-12-20T03:08:09.081Z,7.26
2018-12-20T03:08:43.915Z,7.28
2018-12-20T03:09:18.842Z,7.38
2018-12-20T03:09:53.656Z,7.36
2018-12-20T03:10:28.899Z,7.30
2018-12-20T03:11:04.002Z,7.30
2018-12-20T03:11:39.300Z,7.32
2018-12-20T03:12:13.919Z,7.38
2018-12-20T03:12:48.656Z,7.41
2018-12-20T03:13:23.517Z,7.31
2018-12-20T03:13:58.214Z,7.25
2018-12-20T03:14:33.097Z,7.29
2018-12-20T03:15:08.519Z,7.29
2018-12-20T03:15:43.647Z,7.21
2018-12-20T03:16:18.774Z,7.25
2018-12-20T03:16:53.770Z,7.21
2018-12-20T03:17:28.630Z,6.97
2018-12-20T03:18:03.349Z,7.24
2018-12-20T03:18:37.932Z,7.16
2018-12-20T03:19:12.681Z,7.16
2018-12-20T03:19:47.299Z,7.29
2018-12-20T03:20:21.908Z,7.26
2018-12-20T03:20:56.749Z,7.25
2018-12-20T03:21:31.727Z,7.18
2018-12-20T03:22:06.848Z,7.18
2018-12-20T03:22:41.741Z,7.24
2018-12-20T03:23:16.518Z,7.30
2018-12-20T03:23:51.102Z,7.35
2018-12-20T03:24:25.932Z,7.31
2018-12-20T03:25:01.362Z,7.27
2018-12-20T03:25:36.388Z,7.34
2018-12-20T03:26:11.230Z,7.34
2018-12-20T03:26:46.025Z,7.34
2018-12-20T03:27:21.077Z,7.38
2018-12-20T03:27:56.282Z,7.24
2018-12-20T03:28:30.998Z,7.27
2018-12-20T03:29:05.638Z,7.31
2018-12-20T03:29:40.781Z,7.42
2018-12-20T03:30:16.009Z,7.37
2018-12-20T03:30:51.043Z,7.29
2018-12-20T03:31:25.882Z,7.31
2018-12-20T03:32:00.894Z,7.33
2018-12-20T03:32:35.994Z,7.27
2018-12-20T03:33:10.888Z,7.26
2018-12-20T03:33:46.596Z,7.21
2018-12-20T03:34:21.597Z,7.14
2018-12-20T03:34:56.311Z,7.14
2018-12-20T03:35:31.334Z,7.23
2018-12-20T03:36:06.685Z,7.27
2018-12-20T03:36:41.566Z,7.26
2018-12-20T03:37:16.495Z,7.31
2018-12-20T03:37:51.506Z,7.25
2018-12-20T03:38:26.733Z,7.24
2018-12-20T03:39:01.784Z,7.14
2018-12-20T03:39:36.568Z,7.18
2018-12-20T03:40:11.617Z,7.14
2018-12-20T03:40:46.547Z,7.14
2018-12-20T03:41:21.372Z,7.21
2018-12-20T03:41:56.352Z,7.29
2018-12-20T03:42:31.242Z,7.27
2018-12-20T03:43:06.795Z,7.25
2018-12-20T03:43:41.816Z,7.31
2018-12-20T03:44:16.776Z,7.24
2018-12-20T03:44:51.643Z,7.24
2018-12-20T03:45:29.057Z,7.23
2018-12-20T03:46:02.974Z,7.18
2018-12-20T03:46:37.561Z,7.25
2018-12-20T03:47:12.217Z,7.21
2018-12-20T03:47:47.111Z,7.18
2018-12-20T03:48:21.966Z,7.20
2018-12-20T03:48:56.708Z,7.17
2018-12-20T03:49:31.656Z,7.19
2018-12-20T03:50:07.669Z,7.27
2018-12-20T03:50:42.733Z,7.24
2018-12-20T03:51:17.768Z,7.19
2018-12-20T03:51:52.635Z,7.22
2018-12-20T03:52:27.426Z,7.25
2018-12-20T03:53:02.302Z,7.27
2018-12-20T03:53:37.189Z,7.26
2018-12-20T03:54:12.099Z,7.30
2018-12-20T03:54:47.107Z,7.25
2018-12-20T03:55:21.999Z,7.31
2018-12-20T03:55:56.947Z,7.29
2018-12-20T03:56:32.306Z,7.21
2018-12-20T03:57:07.056Z,7.22
2018-12-20T03:57:42.005Z,7.26
2018-12-20T03:58:16.812Z,7.31
2018-12-20T03:58:51.574Z,7.26
2018-12-20T03:59:26.458Z,7.24
2018-12-20T04:00:01.493Z,7.28
2018-12-20T04:00:36.490Z,7.31
2018-12-20T04:01:11.065Z,7.19
2018-12-20T04:01:45.654Z,7.24
2018-12-20T04:02:22.324Z,7.22
2018-12-20T04:02:57.836Z,7.14
2018-12-20T04:03:33.369Z,7.14
2018-12-20T04:04:08.480Z,7.10
2018-12-20T04:04:43.424Z,7.02
2018-12-20T04:05:18.217Z,7.06
2018-12-20T04:05:52.890Z,7.13
2018-12-20T04:06:27.579Z,7.12
2018-12-20T04:07:02.466Z,7.09
2018-12-20T04:07:37.087Z,7.15
2018-12-20T04:08:11.749Z,7.19
2018-12-20T04:08:46.574Z,7.13
2018-12-20T04:09:21.308Z,7.15
2018-12-20T04:09:56.315Z,7.10
2018-12-20T04:10:31.328Z,7.11
2018-12-20T04:11:06.136Z,7.13
2018-12-20T04:11:41.180Z,7.07
2018-12-20T04:12:15.930Z,7.06
2018-12-20T04:12:50.943Z,7.08
2018-12-20T04:13:26.019Z,7.02
2018-12-20T04:14:00.728Z,7.10
2018-12-20T04:14:35.860Z,7.07
2018-12-20T04:15:11.106Z,7.09
2018-12-20T04:15:46.130Z,7.12
2018-12-20T04:16:20.957Z,7.02
2018-12-20T04:16:55.685Z,7.09
2018-12-20T04:17:30.797Z,7.06
2018-12-20T04:18:05.821Z,7.06
2018-12-20T04:18:40.757Z,7.06
2018-12-20T04:19:15.358Z,7.04
2018-12-20T04:19:49.971Z,7.04
2018-12-20T04:20:24.888Z,7.07
2018-12-20T04:21:00.096Z,7.05
2018-12-20T04:21:35.151Z,7.09
2018-12-20T04:22:10.178Z,7.05
2018-12-20T04:22:45.079Z,7.02
2018-12-20T04:23:19.894Z,6.99
2018-12-20T04:23:54.849Z,7.03
2018-12-20T04:24:29.718Z,7.05
2018-12-20T04:25:04.744Z,6.98
2018-12-20T04:25:39.404Z,6.97
2018-12-20T04:26:14.111Z,6.99
2018-12-20T04:26:49.053Z,7.03
2018-12-20T04:27:23.657Z,7.04
2018-12-20T04:27:58.575Z,7.03
2018-12-20T04:28:33.731Z,6.94
2018-12-20T04:29:08.751Z,7.06
2018-12-20T04:29:43.322Z,7.09
2018-12-20T04:30:18.105Z,7.13
2018-12-20T04:30:53.125Z,7.14
2018-12-20T04:31:28.260Z,7.08
2018-12-20T04:32:03.604Z,7.10
2018-12-20T04:32:38.751Z,7.05
2018-12-20T04:33:13.683Z,7.09
2018-12-20T04:33:48.757Z,7.05
2018-12-20T04:34:23.572Z,7.10
2018-12-20T04:34:58.184Z,7.06
2018-12-20T04:35:32.858Z,6.98
2018-12-20T04:36:07.700Z,6.96
2018-12-20T04:36:42.278Z,6.88
2018-12-20T04:37:17.145Z,6.85
2018-12-20T04:37:52.362Z,6.81
2018-12-20T04:38:27.241Z,6.79
2018-12-20T04:39:01.901Z,6.79
2018-12-20T04:39:36.811Z,6.72
2018-12-20T04:40:11.879Z,6.68
2018-12-20T04:40:46.937Z,6.77
2018-12-20T04:41:22.552Z,6.76
2018-12-20T04:41:57.825Z,6.83
2018-12-20T04:42:32.750Z,6.71
2018-12-20T04:43:07.389Z,6.69
2018-12-20T04:43:42.647Z,6.67
2018-12-20T04:44:17.862Z,6.70
2018-12-20T04:44:52.715Z,6.81
2018-12-20T04:45:27.359Z,6.64
2018-12-20T04:46:02.365Z,6.78
2018-12-20T04:46:37.310Z,6.81
2018-12-20T04:47:12.431Z,6.83
2018-12-20T04:47:47.450Z,6.87
2018-12-20T04:48:23.053Z,6.82
2018-12-20T04:48:57.972Z,6.87
2018-12-20T04:49:32.704Z,6.80
2018-12-20T04:50:07.516Z,6.75
2018-12-20T04:50:42.445Z,6.78
2018-12-20T04:51:17.398Z,6.87
2018-12-20T04:51:52.345Z,6.77
2018-12-20T04:52:27.051Z,6.80
2018-12-20T04:53:01.998Z,6.82
2018-12-20T04:53:36.737Z,6.69
2018-12-20T04:54:11.558Z,6.81
2018-12-20T04:54:46.167Z,6.83
2018-12-20T04:55:20.877Z,6.75
2018-12-20T04:55:55.675Z,6.65
2018-12-20T04:56:30.389Z,6.60
2018-12-20T04:57:05.297Z,6.61
2018-12-20T04:57:40.111Z,6.63
2018-12-20T04:58:15.434Z,6.70
2018-12-20T04:58:50.413Z,6.69
2018-12-20T04:59:25.388Z,6.77
2018-12-20T05:00:00.437Z,6.70
2018-12-20T05:00:35.768Z,6.72
2018-12-20T05:01:10.377Z,6.84
2018-12-20T05:01:45.238Z,6.90
2018-12-20T05:02:20.101Z,6.84
2018-12-20T05:02:55.291Z,6.87
2018-12-20T05:03:30.251Z,6.86
2018-12-20T05:04:05.244Z,6.81
2018-12-20T05:04:40.051Z,6.92
2018-12-20T05:05:14.989Z,6.78
2018-12-20T05:05:49.931Z,6.70
2018-12-20T05:06:24.528Z,6.67
2018-12-20T05:06:59.907Z,6.71
2018-12-20T05:07:35.045Z,6.83
2018-12-20T05:08:09.881Z,6.84
2018-12-20T05:08:44.617Z,6.77
2018-12-20T05:09:19.829Z,6.81
2018-12-20T05:09:54.713Z,6.78
2018-12-20T05:10:30.404Z,6.77
2018-12-20T05:11:05.383Z,6.76
2018-12-20T05:11:41.387Z,6.69
2018-12-20T05:12:16.187Z,6.76
2018-12-20T05:12:50.814Z,6.86
2018-12-20T05:13:25.595Z,6.86
2018-12-20T05:14:00.600Z,6.77
2018-12-20T05:14:35.557Z,6.78
2018-12-20T05:15:10.790Z,6.68
2018-12-20T05:15:45.645Z,6.69
2018-12-20T05:16:20.576Z,6.69
2018-12-20T05:16:55.266Z,6.68
2018-12-20T05:17:30.360Z,6.60
2018-12-20T05:18:05.232Z,6.52
2018-12-20T05:18:39.906Z,6.50
2018-12-20T05:19:14.958Z,6.61
2018-12-20T05:19:49.881Z,6.69
2018-12-20T05:20:24.549Z,6.68
2018-12-20T05:20:59.872Z,6.65
2018-12-20T05:21:35.154Z,6.73
2018-12-20T05:22:10.312Z,6.62
2018-12-20T05:22:45.462Z,6.66
2018-12-20T05:23:20.631Z,6.69
2018-12-20T05:23:55.595Z,6.72
2018-12-20T05:24:30.502Z,6.77
2018-12-20T05:25:06.232Z,6.77
2018-12-20T05:25:41.270Z,6.75
2018-12-20T05:26:16.770Z,6.78
2018-12-20T05:26:51.383Z,6.79
2018-12-20T05:27:26.010Z,6.80
2018-12-20T05:28:00.891Z,6.79
2018-12-20T05:28:35.464Z,6.74
2018-12-20T05:29:10.176Z,6.72
2018-12-20T05:29:45.192Z,6.75
2018-12-20T05:30:19.870Z,6.71
2018-12-20T05:30:54.920Z,6.71
2018-12-20T05:31:29.886Z,6.72
2018-12-20T05:32:04.754Z,6.74
2018-12-20T05:32:39.375Z,6.76
2018-12-20T05:33:14.273Z,6.81
2018-12-20T05:33:48.898Z,6.75
2018-12-20T05:34:23.936Z,6.77
2018-12-20T05:34:58.935Z,6.75
2018-12-20T05:35:33.623Z,6.86
2018-12-20T05:36:08.519Z,6.81
2018-12-20T05:36:43.226Z,6.77
2018-12-20T05:37:18.354Z,6.79
2018-12-20T05:37:53.248Z,6.80
2018-12-20T05:38:28.247Z,6.78
2018-12-20T05:39:03.216Z,6.86
2018-12-20T05:39:37.856Z,6.77
2018-12-20T05:40:12.732Z,6.81
2018-12-20T05:40:47.776Z,6.72
2018-12-20T05:41:22.526Z,6.70
2018-12-20T05:41:57.664Z,6.72
2018-12-20T05:42:32.901Z,6.79
2018-12-20T05:43:08.056Z,6.84
2018-12-20T05:43:42.860Z,6.80
2018-12-20T05:44:17.818Z,6.83
2018-12-20T05:44:52.789Z,6.85
2018-12-20T05:45:27.830Z,6.81
2018-12-20T05:46:04.594Z,6.85
2018-12-20T05:46:39.553Z,6.89
2018-12-20T05:47:14.436Z,6.90
2018-12-20T05:47:49.556Z,6.87
2018-12-20T05:48:24.175Z,6.82
2018-12-20T05:48:59.023Z,6.76
2018-12-20T05:49:33.787Z,6.71
2018-12-20T05:50:08.880Z,6.75
2018-12-20T05:50:43.991Z,6.78
2018-12-20T05:51:18.925Z,6.81
2018-12-20T05:51:53.722Z,6.84
2018-12-20T05:52:28.402Z,6.85
2018-12-20T05:53:03.348Z,6.85
2018-12-20T05:53:38.090Z,6.87
2018-12-20T05:54:13.238Z,6.78
2018-12-20T05:54:48.090Z,6.87
2018-12-20T05:55:22.829Z,6.79
2018-12-20T05:55:57.688Z,6.81
2018-12-20T05:56:32.604Z,6.85
2018-12-20T05:57:07.314Z,6.87
2018-12-20T05:57:42.319Z,6.88
2018-12-20T05:58:17.100Z,6.82
2018-12-20T05:58:51.757Z,6.82
2018-12-20T05:59:26.734Z,6.87
2018-12-20T06:00:01.829Z,6.90
2018-12-20T06:00:36.619Z,6.88
2018-12-20T06:01:11.397Z,6.79
2018-12-20T06:01:46.196Z,6.80
2018-12-20T06:02:21.202Z,6.81
2018-12-20T06:02:56.179Z,6.82
2018-12-20T06:03:31.101Z,6.82
2018-12-20T06:04:05.932Z,6.90
2018-12-20T06:04:41.364Z,6.83
2018-12-20T06:05:16.315Z,6.82
2018-12-20T06:05:51.373Z,6.85
2018-12-20T06:06:26.519Z,6.89
2018-12-20T06:07:01.877Z,6.90
2018-12-20T06:07:36.874Z,6.90
2018-12-20T06:08:11.736Z,6.85
2018-12-20T06:08:46.577Z,6.83
2018-12-20T06:09:21.675Z,6.78
2018-12-20T06:09:56.502Z,6.83
2018-12-20T06:10:31.179Z,6.85
2018-12-20T06:11:05.867Z,6.80
2018-12-20T06:11:40.739Z,6.83
2018-12-20T06:12:15.654Z,6.71
2018-12-20T06:12:50.708Z,6.69
2018-12-20T06:13:25.617Z,6.73
2018-12-20T06:14:00.539Z,6.73
2018-12-20T06:14:35.520Z,6.74
2018-12-20T06:15:11.317Z,6.74
2018-12-20T06:15:46.371Z,6.69
2018-12-20T06:16:21.505Z,6.67
2018-12-20T06:16:57.207Z,6.67
2018-12-20T06:17:31.893Z,6.69
2018-12-20T06:18:06.680Z,6.69
2018-12-20T06:18:41.769Z,6.67
2018-12-20T06:19:16.585Z,6.58
2018-12-20T06:19:52.808Z,6.62
2018-12-20T06:20:27.925Z,6.71
2018-12-20T06:21:03.089Z,6.67
2018-12-20T06:21:38.239Z,6.73
2018-12-20T06:22:13.040Z,6.67
2018-12-20T06:22:47.600Z,6.62
2018-12-20T06:23:22.432Z,6.65
2018-12-20T06:23:57.355Z,6.65
2018-12-20T06:24:32.024Z,6.58
2018-12-20T06:25:07.208Z,6.60
2018-12-20T06:25:41.829Z,6.52
2018-12-20T06:26:16.449Z,6.46
2018-12-20T06:26:51.210Z,6.49
2018-12-20T06:27:26.054Z,6.47
2018-12-20T06:28:00.712Z,6.48
2018-12-20T06:28:35.478Z,6.53
2018-12-20T06:29:10.072Z,6.58
2018-12-20T06:29:44.697Z,6.58
2018-12-20T06:30:19.307Z,6.61
2018-12-20T06:30:53.909Z,6.62
2018-12-20T06:31:28.612Z,6.53
2018-12-20T06:32:03.335Z,6.44
2018-12-20T06:32:38.472Z,6.49
2018-12-20T06:33:13.084Z,6.46
2018-12-20T06:33:47.710Z,6.50
2018-12-20T06:34:22.411Z,6.54
2018-12-20T06:34:57.304Z,6.45
2018-12-20T06:35:32.106Z,6.62
2018-12-20T06:36:07.200Z,6.61
2018-12-20T06:36:41.899Z,6.60
2018-12-20T06:37:16.486Z,6.59
2018-12-20T06:37:51.085Z,6.63
2018-12-20T06:38:25.704Z,6.74
2018-12-20T06:39:00.403Z,6.69
2018-12-20T06:39:35.095Z,6.72
2018-12-20T06:40:09.738Z,6.76
2018-12-20T06:40:44.417Z,6.70
2018-12-20T06:41:19.124Z,6.53
2018-12-20T06:41:53.747Z,6.61
2018-12-20T06:42:28.714Z,6.61
2018-12-20T06:43:03.410Z,6.55
2018-12-20T06:43:38.101Z,6.57
2018-12-20T06:44:12.938Z,6.59
2018-12-20T06:44:47.553Z,6.50
2018-12-20T06:45:22.169Z,6.51
2018-12-20T06:45:56.869Z,6.51
2018-12-20T06:46:31.609Z,6.58
2018-12-20T06:47:06.462Z,6.52
2018-12-20T06:47:41.153Z,6.58
2018-12-20T06:48:16.043Z,6.64
2018-12-20T06:48:50.678Z,6.64
2018-12-20T06:49:25.563Z,6.52
2018-12-20T06:50:00.349Z,6.62
2018-12-20T06:50:35.027Z,6.58
2018-12-20T06:51:09.626Z,6.53
2018-12-20T06:51:44.481Z,6.52
2018-12-20T06:52:19.587Z,6.51
2018-12-20T06:52:54.189Z,6.51
2018-12-20T06:53:29.166Z,6.48
2018-12-20T06:54:04.508Z,6.43
2018-12-20T06:54:39.149Z,6.40
2018-12-20T06:55:14.260Z,6.50
2018-12-20T06:55:48.880Z,6.47
2018-12-20T06:56:23.968Z,6.52
2018-12-20T06:56:58.792Z,6.45
2018-12-20T06:57:33.626Z,6.48
2018-12-20T06:58:08.258Z,6.53
2018-12-20T06:58:42.933Z,6.53
2018-12-20T06:59:17.589Z,6.53
2018-12-20T06:59:52.185Z,6.56
2018-12-20T07:00:26.870Z,6.49
2018-12-20T07:01:01.577Z,6.52
2018-12-20T07:01:36.273Z,6.43
2018-12-20T07:02:10.979Z,6.43
2018-12-20T07:02:45.612Z,6.44
2018-12-20T07:03:20.222Z,6.46
2018-12-20T07:03:55.223Z,6.46
2018-12-20T07:04:29.900Z,6.41
2018-12-20T07:05:05.998Z,6.38
2018-12-20T07:05:40.636Z,6.43
2018-12-20T07:06:15.275Z,6.41
2018-12-20T07:06:49.899Z,6.40
2018-12-20T07:07:24.510Z,6.37
2018-12-20T07:07:59.162Z,6.44
2018-12-20T07:08:33.935Z,6.43
2018-12-20T07:09:09.948Z,6.46
2018-12-20T07:09:44.529Z,6.48
2018-12-20T07:10:19.253Z,6.51
2018-12-20T07:10:53.883Z,6.47
2018-12-20T07:11:28.924Z,6.47
2018-12-20T07:12:03.650Z,6.43
2018-12-20T07:12:38.234Z,6.41
2018-12-20T07:13:12.840Z,6.43
2018-12-20T07:13:47.493Z,6.41
2018-12-20T07:14:22.129Z,6.41
2018-12-20T07:14:56.778Z,6.50
2018-12-20T07:15:31.563Z,6.50
2018-12-20T07:16:06.301Z,6.42
2018-12-20T07:16:40.900Z,6.44
2018-12-20T07:17:15.527Z,6.44
2018-12-20T07:17:50.200Z,6.45
2018-12-20T07:18:24.799Z,6.48
2018-12-20T07:18:59.552Z,6.50
2018-12-20T07:19:34.444Z,6.44
2018-12-20T07:20:10.069Z,6.42
2018-12-20T07:20:44.800Z,6.42
2018-12-20T07:21:19.525Z,6.45
2018-12-20T07:21:54.322Z,6.45
2018-12-20T07:22:29.614Z,6.45
2018-12-20T07:23:04.785Z,6.47
2018-12-20T07:23:39.397Z,6.49
2018-12-20T07:24:14.032Z,6.48
2018-12-20T07:24:48.620Z,6.52
2018-12-20T07:25:23.259Z,6.48
2018-12-20T07:25:58.325Z,6.51
2018-12-20T07:26:33.019Z,6.47
2018-12-20T07:27:07.708Z,6.51
2018-12-20T07:27:42.316Z,6.46
2018-12-20T07:28:16.956Z,6.39
2018-12-20T07:28:52.057Z,6.40
2018-12-20T07:29:26.729Z,6.37
2018-12-20T07:30:01.466Z,6.37
2018-12-20T07:30:36.226Z,6.45
2018-12-20T07:31:10.914Z,6.49
2018-12-20T07:31:45.549Z,6.47
2018-12-20T07:32:25.080Z,6.49
2018-12-20T07:32:56.939Z,6.43
2018-12-20T07:33:31.687Z,6.44
2018-12-20T07:34:07.305Z,6.38
2018-12-20T07:34:47.832Z,6.40
2018-12-20T07:35:18.570Z,6.44
2018-12-20T07:35:53.203Z,6.48
2018-12-20T07:36:28.345Z,6.48
2018-12-20T07:37:03.014Z,6.48
2018-12-20T07:37:37.735Z,6.50
2018-12-20T07:38:12.381Z,6.43
2018-12-20T07:38:47.031Z,6.42
2018-12-20T07:39:22.092Z,6.46
2018-12-20T07:39:56.865Z,6.44
2018-12-20T07:40:31.701Z,6.42
2018-12-20T07:41:06.678Z,6.42
2018-12-20T07:41:41.272Z,6.50
2018-12-20T07:42:15.953Z,6.48
2018-12-20T07:42:50.578Z,6.52
2018-12-20T07:43:25.214Z,6.52
2018-12-20T07:44:00.065Z,6.57
2018-12-20T07:44:34.757Z,6.50
2018-12-20T07:45:10.081Z,6.52